Time;durP1;ratioP1;P1;durP2;ratioP2;P2;SDS_P1;SDS_P2;PMS_P1;PMS_P2;Temp;Humidity;BMP_temperature;BMP_pressure;BME280_temperature;BME280_humidity;BME280_pressure;Samples;Min_cycle;Max_cycle;Signal;HPM_P1;HPM_P2
2023/05/04 00:02:30;;;;;;;8.77;3.95;;;;;;;;;;6193581;23;20005;-95
2023/05/04 00:04:56;;;;;;;14.52;4.93;;;;;;;;;;6196052;23;20016;-94
2023/05/04 00:07:41;;;;;;;12.10;4.75;;;;;;;;;;6174698;22;20021;-94
2023/05/04 00:10:20;;;;;;;15.60;4.55;;;;;;;;;;6197284;23;20008;-94
2023/05/04 00:12:56;;;;;;;9.70;4.65;;;;;;;;;;6196947;23;20020;-94
2023/05/04 00:15:33;;;;;;;11.70;4.93;;;;;;;;;;6149656;23;20032;-93
2023/05/04 00:18:06;;;;;;;11.32;4.68;;;;;;;;;;6173969;23;20068;-94
2023/05/04 00:20:33;;;;;;;14.60;5.38;;;;;;;;;;6168297;23;20017;-96
2023/05/04 00:23:00;;;;;;;10.57;4.72;;;;;;;;;;6195904;23;20091;-95
2023/05/04 00:25:50;;;;;;;14.02;4.82;;;;;;;;;;6196083;23;20005;-94
2023/05/04 00:28:23;;;;;;;9.20;4.93;;;;;;;;;;6172787;23;20013;-94
2023/05/04 00:31:08;;;;;;;;;;;;;;;;;;;;;
2023/05/04 00:33:35;;;;;;;13.93;4.83;;;;;;;;;;6197077;23;20562;-95
2023/05/04 00:36:03;;;;;;;15.30;5.32;;;;;;;;;;6172573;23;20005;-94
2023/05/04 00:38:46;;;;;;;8.38;4.78;;;;;;;;;;6194502;23;20005;-95
2023/05/04 00:41:13;;;;;;;16.63;5.03;;;;;;;;;;6195186;23;20009;-95
2023/05/04 00:43:39;;;;;;;17.58;5.05;;;;;;;;;;6194977;23;20015;-95
2023/05/04 00:46:15;;;;;;;14.93;4.70;;;;;;;;;;6169985;23;20013;-95
2023/05/04 00:48:41;;;;;;;9.75;4.82;;;;;;;;;;6195716;23;20028;-94
2023/05/04 00:51:09;;;;;;;11.23;5.20;;;;;;;;;;6194121;23;20019;-95
2023/05/04 00:53:56;;;;;;;16.25;5.38;;;;;;;;;;6195132;23;20005;-95
2023/05/04 00:56:40;;;;;;;15.38;4.43;;;;;;;;;;6172302;23;20071;-95
2023/05/04 00:59:09;;;;;;;20.80;5.20;;;;;;;;;;6197363;23;20009;-94
2023/05/04 01:01:40;;;;;;;13.35;5.40;;;;;;;;;;6194592;23;20142;-93
2023/05/04 01:04:06;;;;;;;14.30;5.00;;;;;;;;;;6193385;23;20399;-95
2023/05/04 01:06:46;;;;;;;15.35;5.55;;;;;;;;;;6198090;22;20043;-94
2023/05/04 01:09:27;;;;;;;12.93;4.78;;;;;;;;;;6193455;23;20005;-95
2023/05/04 01:12:18;;;;;;;15.23;5.50;;;;;;;;;;6193583;23;20091;-95
2023/05/04 01:14:45;;;;;;;17.02;5.57;;;;;;;;;;6149176;23;20292;-95
2023/05/04 01:17:42;;;;;;;14.45;5.63;;;;;;;;;;6193271;23;20043;-94
2023/05/04 01:20:09;;;;;;;;;;;;;;;;;;6139833;23;20020;-93
2023/05/04 01:22:37;;;;;;;14.98;5.15;;;;;;;;;;6164260;23;19911;-93
2023/05/04 01:25:06;;;;;;;16.27;5.20;;;;;;;;;;6166968;23;20017;-94
2023/05/04 01:27:51;;;;;;;9.50;4.80;;;;;;;;;;6168848;23;20009;-95
2023/05/04 01:30:37;;;;;;;12.07;4.68;;;;;;;;;;6194438;23;20080;-95
2023/05/04 01:33:03;;;;;;;12.13;5.65;;;;;;;;;;6193407;23;20031;-94
2023/05/04 01:35:48;;;;;;;9.48;5.00;;;;;;;;;;6170060;23;20395;-95
2023/05/04 01:38:14;;;;;;;11.75;5.25;;;;;;;;;;6168183;23;20009;-94
2023/05/04 01:43:28;;;;;;;18.65;5.47;;;;;;;;;;6194953;23;20019;-95
2023/05/04 01:45:54;;;;;;;18.45;5.20;;;;;;;;;;6170724;23;20005;-95
2023/05/04 01:48:33;;;;;;;;;;;;;;;;;;;;;
2023/05/04 01:51:18;;;;;;;11.98;5.07;;;;;;;;;;6174001;23;20186;-94
2023/05/04 01:53:48;;;;;;;13.18;5.47;;;;;;;;;;6201997;23;20001;-93
2023/05/04 01:56:14;;;;;;;21.60;5.28;;;;;;;;;;6174665;23;20001;-94
2023/05/04 01:58:43;;;;;;;15.43;5.50;;;;;;;;;;6176061;23;20008;-93
2023/05/04 02:01:10;;;;;;;14.10;5.40;;;;;;;;;;6199539;23;20057;-94
2023/05/04 02:03:43;;;;;;;12.98;5.30;;;;;;;;;;6179785;23;20012;-94
2023/05/04 02:06:27;;;;;;;13.55;5.85;;;;;;;;;;6184981;22;20005;-95
2023/05/04 02:08:54;;;;;;;12.43;4.75;;;;;;;;;;6206140;23;20008;-95
2023/05/04 02:11:32;;;;;;;19.33;5.60;;;;;;;;;;6180175;23;20009;-95
2023/05/04 02:13:59;;;;;;;16.75;5.72;;;;;;;;;;6200351;23;20059;-95
2023/05/04 02:16:25;;;;;;;18.15;5.40;;;;;;;;;;6173249;23;20012;-95
2023/05/04 02:21:41;;;;;;;12.40;5.22;;;;;;;;;;6181823;23;20333;-94
2023/05/04 02:24:07;;;;;;;18.75;5.93;;;;;;;;;;6169696;23;20020;-95
2023/05/04 02:26:35;;;;;;;11.65;5.43;;;;;;;;;;6193792;23;20420;-96
2023/05/04 02:29:06;;;;;;;10.30;5.22;;;;;;;;;;6195347;23;20409;-95
2023/05/04 02:31:33;;;;;;;17.55;5.55;;;;;;;;;;6194774;23;20039;-94
2023/05/04 02:34:00;;;;;;;15.90;6.05;;;;;;;;;;6193392;23;20012;-95
2023/05/04 02:36:27;;;;;;;19.00;6.25;;;;;;;;;;6169446;23;20092;-95
2023/05/04 02:38:59;;;;;;;16.67;6.07;;;;;;;;;;6169833;23;20009;-94
2023/05/04 02:41:25;;;;;;;17.55;5.72;;;;;;;;;;6192996;23;20159;-94
2023/05/04 02:44:01;;;;;;;16.00;6.20;;;;;;;;;;6193104;23;20008;-94
2023/05/04 02:46:31;;;;;;;12.63;5.70;;;;;;;;;;6168752;23;20009;-95
2023/05/04 02:48:57;;;;;;;13.23;5.40;;;;;;;;;;6191606;23;20009;-95
2023/05/04 02:51:42;;;;;;;15.43;5.97;;;;;;;;;;6193152;23;20304;-95
2023/05/04 02:54:08;;;;;;;15.88;6.55;;;;;;;;;;6171883;23;20024;-94
2023/05/04 02:56:34;;;;;;;13.45;6.15;;;;;;;;;;6192614;23;20389;-95
2023/05/04 02:59:07;;;;;;;18.77;5.93;;;;;;;;;;6167142;23;20032;-94
2023/05/04 03:01:33;;;;;;;16.52;6.38;;;;;;;;;;6190457;23;20029;-94
2023/05/04 03:04:07;;;;;;;23.50;7.13;;;;;;;;;;6167408;23;20027;-95
2023/05/04 03:06:33;;;;;;;11.50;5.28;;;;;;;;;;6196732;22;20450;-95
2023/05/04 03:09:03;;;;;;;18.65;6.43;;;;;;;;;;6194973;23;20038;-95
2023/05/04 03:11:43;;;;;;;11.93;5.88;;;;;;;;;;6169200;23;20061;-94
2023/05/04 03:14:11;;;;;;;16.30;6.50;;;;;;;;;;6192648;23;20198;-95
2023/05/04 03:16:37;;;;;;;17.30;5.97;;;;;;;;;;6192376;23;20062;-93
2023/05/04 03:19:22;;;;;;;14.73;6.63;;;;;;;;;;6191365;23;20013;-94
2023/05/04 03:22:01;;;;;;;19.17;6.50;;;;;;;;;;6192831;23;20012;-94
2023/05/04 03:24:49;;;;;;;17.48;6.38;;;;;;;;;;6169435;23;20456;-94
2023/05/04 03:27:33;;;;;;;11.07;5.30;;;;;;;;;;6191281;23;20068;-94
2023/05/04 03:29:59;;;;;;;18.80;6.22;;;;;;;;;;6191623;23;20005;-94
2023/05/04 03:32:46;;;;;;;16.38;6.10;;;;;;;;;;6167009;23;20012;-94
2023/05/04 03:35:13;;;;;;;17.90;7.03;;;;;;;;;;6190353;23;20035;-95
2023/05/04 03:37:41;;;;;;;18.70;6.13;;;;;;;;;;6167066;23;20005;-94
2023/05/04 03:40:08;;;;;;;25.08;6.50;;;;;;;;;;6168400;23;20076;-94
2023/05/04 03:42:34;;;;;;;17.27;6.90;;;;;;;;;;6193254;23;20088;-96
2023/05/04 03:45:16;;;;;;;16.38;6.57;;;;;;;;;;6168642;23;20001;-95
2023/05/04 03:47:48;;;;;;;14.55;6.90;;;;;;;;;;6168096;23;20538;-94
2023/05/04 03:50:14;;;;;;;11.57;6.53;;;;;;;;;;6167943;23;20005;-95
2023/05/04 03:52:41;;;;;;;15.00;6.18;;;;;;;;;;6168710;23;20047;-94
2023/05/04 03:55:10;;;;;;;16.05;6.40;;;;;;;;;;6167510;23;20634;-94
2023/05/04 03:57:37;;;;;;;15.73;7.25;;;;;;;;;;6167172;23;20098;-93
2023/05/04 04:00:07;;;;;;;17.15;7.57;;;;;;;;;;6168709;23;20009;-94
2023/05/04 04:02:34;;;;;;;19.02;6.50;;;;;;;;;;6191793;23;20056;-94
2023/05/04 04:05:00;;;;;;;26.95;7.72;;;;;;;;;;6167180;23;20077;-93
2023/05/04 04:07:26;;;;;;;13.05;6.93;;;;;;;;;;6170611;22;20017;-93
2023/05/04 04:10:15;;;;;;;16.00;6.95;;;;;;;;;;6167343;23;19996;-94
2023/05/04 04:12:41;;;;;;;16.35;6.72;;;;;;;;;;6145065;23;20012;-94
2023/05/04 04:15:08;;;;;;;23.88;7.05;;;;;;;;;;6169143;23;20013;-94
2023/05/04 04:17:36;;;;;;;15.50;6.68;;;;;;;;;;6167592;23;20096;-95
2023/05/04 04:20:02;;;;;;;17.20;6.07;;;;;;;;;;6166599;23;20024;-94
2023/05/04 04:22:32;;;;;;;17.27;7.28;;;;;;;;;;6189207;23;20009;-94
2023/05/04 04:25:06;;;;;;;15.77;6.35;;;;;;;;;;6167299;23;20009;-94
2023/05/04 04:27:34;;;;;;;18.98;6.90;;;;;;;;;;6192119;23;20037;-94
2023/05/04 04:30:00;;;;;;;13.90;6.75;;;;;;;;;;6193568;23;20160;-94
2023/05/04 04:32:26;;;;;;;14.27;6.13;;;;;;;;;;6167458;23;20361;-93
2023/05/04 04:34:52;;;;;;;18.27;7.70;;;;;;;;;;6165603;23;20005;-94
2023/05/04 04:37:32;;;;;;;14.77;5.90;;;;;;;;;;6166819;23;20183;-93
2023/05/04 04:40:02;;;;;;;14.73;6.43;;;;;;;;;;6194923;23;20016;-94
2023/05/04 04:42:29;;;;;;;17.98;6.30;;;;;;;;;;6190882;23;20566;-93
2023/05/04 04:45:11;;;;;;;18.85;7.13;;;;;;;;;;6169861;23;20703;-95
2023/05/04 04:47:47;;;;;;;15.13;6.03;;;;;;;;;;6170160;23;20044;-94
2023/05/04 04:50:14;;;;;;;20.98;7.03;;;;;;;;;;6190480;23;20040;-94
2023/05/04 04:52:56;;;;;;;18.65;6.50;;;;;;;;;;6195783;23;20013;-94
2023/05/04 04:55:24;;;;;;;20.58;6.50;;;;;;;;;;6172060;23;20009;-93
2023/05/04 04:57:51;;;;;;;22.67;7.07;;;;;;;;;;6171113;23;20453;-95
2023/05/04 05:00:18;;;;;;;11.90;6.60;;;;;;;;;;6168324;23;20436;-94
2023/05/04 05:02:45;;;;;;;16.60;6.20;;;;;;;;;;6195334;23;19993;-94
2023/05/04 05:05:14;;;;;;;17.85;6.50;;;;;;;;;;6170690;23;20009;-94
2023/05/04 05:07:41;;;;;;;17.67;7.47;;;;;;;;;;6171826;22;20029;-94
2023/05/04 05:10:08;;;;;;;19.35;6.90;;;;;;;;;;6168761;23;20005;-95
2023/05/04 05:12:34;;;;;;;15.07;6.45;;;;;;;;;;6167695;23;20009;-94
2023/05/04 05:15:03;;;;;;;11.88;6.07;;;;;;;;;;6198676;23;20040;-95
2023/05/04 05:17:39;;;;;;;13.38;5.78;;;;;;;;;;6194535;23;20025;-94
2023/05/04 05:20:18;;;;;;;12.82;6.25;;;;;;;;;;6167467;23;20009;-93
2023/05/04 05:22:45;;;;;;;17.15;6.78;;;;;;;;;;6190818;23;20028;-94
2023/05/04 05:25:12;;;;;;;17.83;6.35;;;;;;;;;;6169348;23;20466;-95
2023/05/04 05:27:38;;;;;;;11.07;6.03;;;;;;;;;;6168927;23;19993;-94
2023/05/04 05:30:29;;;;;;;17.33;6.63;;;;;;;;;;6196763;23;20001;-95
2023/05/04 05:32:58;;;;;;;12.27;5.80;;;;;;;;;;6199307;23;20004;-94
2023/05/04 05:36:03;;;;;;;21.30;6.32;;;;;;;;;;6176740;23;20439;-94
2023/05/04 05:38:21;;;;;;;17.55;6.05;;;;;;;;;;6196573;23;20040;-93
2023/05/04 05:41:00;;;;;;;23.27;7.03;;;;;;;;;;6199749;23;19997;-94
2023/05/04 05:43:42;;;;;;;10.68;5.47;;;;;;;;;;6203508;23;20079;-94
2023/05/04 05:46:11;;;;;;;23.50;6.15;;;;;;;;;;6200554;23;20005;-93
2023/05/04 05:48:41;;;;;;;19.40;6.43;;;;;;;;;;6200919;23;20089;-94
2023/05/04 05:51:15;;;;;;;10.70;5.70;;;;;;;;;;6202870;23;20009;-94
2023/05/04 05:53:48;;;;;;;19.52;6.55;;;;;;;;;;6203649;23;20072;-94
2023/05/04 05:56:17;;;;;;;16.00;6.65;;;;;;;;;;6207017;23;20032;-93
2023/05/04 05:58:43;;;;;;;15.65;5.68;;;;;;;;;;6207473;23;19996;-95
2023/05/04 06:01:19;;;;;;;21.45;6.50;;;;;;;;;;6208070;23;20059;-94
2023/05/04 06:04:15;;;;;;;21.42;7.53;;;;;;;;;;6207523;23;20442;-94
2023/05/04 06:06:58;;;;;;;21.50;6.90;;;;;;;;;;6145770;22;20061;-94
2023/05/04 06:09:31;;;;;;;17.17;6.72;;;;;;;;;;6179877;22;20017;-94
2023/05/04 06:11:58;;;;;;;13.50;5.97;;;;;;;;;;6181628;23;20017;-95
2023/05/04 06:14:30;;;;;;;13.85;5.88;;;;;;;;;;6177272;23;20013;-95
2023/05/04 06:17:06;;;;;;;13.93;5.97;;;;;;;;;;6175285;23;20092;-95
2023/05/04 06:19:40;;;;;;;14.82;5.97;;;;;;;;;;6178209;23;20023;-95
2023/05/04 06:22:20;;;;;;;14.80;5.47;;;;;;;;;;6180212;23;20021;-94
2023/05/04 06:24:54;;;;;;;12.30;5.40;;;;;;;;;;6178709;23;20523;-95
2023/05/04 06:27:38;;;;;;;16.95;5.57;;;;;;;;;;6176414;23;19997;-95
2023/05/04 06:30:05;;;;;;;11.88;6.18;;;;;;;;;;6175609;23;20020;-94
2023/05/04 06:32:31;;;;;;;15.13;6.70;;;;;;;;;;6173361;23;20079;-94
2023/05/04 06:34:58;;;;;;;16.30;5.53;;;;;;;;;;6173262;23;20009;-93
2023/05/04 06:37:33;;;;;;;15.43;6.78;;;;;;;;;;6172439;23;20012;-94
2023/05/04 06:39:59;;;;;;;12.18;5.07;;;;;;;;;;6173686;23;20251;-95
2023/05/04 06:42:32;;;;;;;19.08;6.35;;;;;;;;;;6174455;23;20016;-94
2023/05/04 06:45:06;;;;;;;19.30;5.00;;;;;;;;;;6195727;23;20008;-96
2023/05/04 06:47:53;;;;;;;14.40;5.40;;;;;;;;;;6169968;23;20055;-94
2023/05/04 06:50:22;;;;;;;17.52;5.50;;;;;;;;;;6167001;23;20025;-94
2023/05/04 06:52:48;;;;;;;15.27;5.75;;;;;;;;;;6170231;23;20064;-94
2023/05/04 06:55:33;;;;;;;20.83;5.93;;;;;;;;;;6169963;23;20020;-95
2023/05/04 06:58:00;;;;;;;15.10;5.20;;;;;;;;;;6167141;23;20005;-95
2023/05/04 07:00:30;;;;;;;18.55;4.72;;;;;;;;;;6168319;23;20009;-95
2023/05/04 07:02:57;;;;;;;13.18;4.47;;;;;;;;;;6169112;23;20008;-95
2023/05/04 07:08:20;;;;;;;12.55;5.13;;;;;;;;;;6126911;22;20039;-95
2023/05/04 07:10:52;;;;;;;15.07;5.30;;;;;;;;;;6172830;23;20067;-94
2023/05/04 07:13:18;;;;;;;15.60;5.72;;;;;;;;;;6198011;23;20032;-95
2023/05/04 07:15:47;;;;;;;14.32;5.38;;;;;;;;;;6173224;23;20427;-94
2023/05/04 07:18:14;;;;;;;13.50;4.85;;;;;;;;;;6174472;23;20431;-95
2023/05/04 07:20:52;;;;;;;19.90;5.35;;;;;;;;;;6172596;23;20016;-94
2023/05/04 07:23:18;;;;;;;10.80;3.50;;;;;;;;;;6172648;23;20067;-95
2023/05/04 07:25:47;;;;;;;11.32;4.78;;;;;;;;;;6172967;23;20327;-94
2023/05/04 07:28:15;;;;;;;10.95;3.78;;;;;;;;;;6174004;23;20058;-95
2023/05/04 07:30:41;;;;;;;12.88;5.32;;;;;;;;;;6173865;23;20004;-94
2023/05/04 07:33:10;;;;;;;12.27;5.00;;;;;;;;;;6223883;23;20004;-94
2023/05/04 07:35:37;;;;;;;13.10;4.55;;;;;;;;;;6172916;23;20012;-95
2023/05/04 07:38:04;;;;;;;9.88;5.28;;;;;;;;;;6173814;23;20017;-94
2023/05/04 07:40:34;;;;;;;13.68;4.75;;;;;;;;;;6173678;23;20035;-95
2023/05/04 07:43:00;;;;;;;15.55;4.97;;;;;;;;;;6198646;23;20116;-94
2023/05/04 07:45:28;;;;;;;8.70;4.65;;;;;;;;;;6174423;23;20009;-95
2023/05/04 07:48:00;;;;;;;15.98;4.70;;;;;;;;;;6173010;23;20009;-95
2023/05/04 07:50:27;;;;;;;19.48;4.82;;;;;;;;;;6173501;23;20009;-95
2023/05/04 07:52:53;;;;;;;10.13;4.53;;;;;;;;;;6173494;23;20067;-95
2023/05/04 07:55:27;;;;;;;10.93;4.95;;;;;;;;;;6174810;23;20016;-94
2023/05/04 07:57:54;;;;;;;12.50;4.47;;;;;;;;;;6173571;23;20024;-95
2023/05/04 08:00:23;;;;;;;16.80;4.68;;;;;;;;;;6172923;23;20108;-95
2023/05/04 08:02:50;;;;;;;12.88;4.97;;;;;;;;;;6197501;23;20071;-94
2023/05/04 08:05:26;;;;;;;13.65;5.82;;;;;;;;;;6174180;23;20013;-95
2023/05/04 08:07:52;;;;;;;12.40;5.22;;;;;;;;;;6199683;22;20004;-94
2023/05/04 08:10:22;;;;;;;21.17;5.88;;;;;;;;;;6169801;23;20030;-94
2023/05/04 08:13:07;;;;;;;17.30;5.22;;;;;;;;;;6167875;23;20024;-94
2023/05/04 08:15:33;;;;;;;20.98;5.20;;;;;;;;;;6192803;23;20019;-96
2023/05/04 08:17:59;;;;;;;12.68;5.00;;;;;;;;;;6168347;23;20005;-95
2023/05/04 08:23:15;;;;;;;12.90;5.05;;;;;;;;;;6195320;23;20040;-94
2023/05/04 08:25:45;;;;;;;11.07;4.60;;;;;;;;;;6169743;23;20482;-94
2023/05/04 08:28:17;;;;;;;11.47;4.87;;;;;;;;;;6171830;23;20001;-95
2023/05/04 08:30:46;;;;;;;15.55;5.07;;;;;;;;;;6162495;23;20240;-94
2023/05/04 08:33:13;;;;;;;12.85;5.28;;;;;;;;;;6164518;23;20495;-95
2023/05/04 08:35:45;;;;;;;9.82;4.78;;;;;;;;;;6162416;23;20005;-95
2023/05/04 08:38:17;;;;;;;14.20;4.95;;;;;;;;;;6163645;23;20023;-95
2023/05/04 08:40:44;;;;;;;11.10;4.75;;;;;;;;;;6163753;23;20009;-94
2023/05/04 08:43:49;;;;;;;12.80;4.80;;;;;;;;;;6169571;23;19999;-95
2023/05/04 08:46:16;;;;;;;17.85;6.40;;;;;;;;;;6127304;23;20325;-94
2023/05/04 08:48:43;;;;;;;19.52;4.78;;;;;;;;;;6195724;23;20065;-94
2023/05/04 08:51:17;;;;;;;12.77;5.07;;;;;;;;;;6195825;23;20321;-94
2023/05/04 08:53:47;;;;;;;14.43;5.60;;;;;;;;;;6174726;23;20005;-95
2023/05/04 08:59:25;;;;;;;13.32;5.13;;;;;;;;;;6145138;23;20038;-94
2023/05/04 09:01:57;;;;;;;13.63;5.53;;;;;;;;;;6196104;23;20001;-94
2023/05/04 09:04:25;;;;;;;10.73;4.65;;;;;;;;;;6198445;23;20152;-95
2023/05/04 09:06:52;;;;;;;10.68;4.82;;;;;;;;;;6199543;23;20005;-95
2023/05/04 09:09:30;;;;;;;13.15;4.70;;;;;;;;;;6219993;22;20023;-95
2023/05/04 09:11:57;;;;;;;8.33;5.20;;;;;;;;;;6205874;23;20016;-94
2023/05/04 09:14:31;;;;;;;12.73;4.45;;;;;;;;;;6177774;23;20013;-94
2023/05/04 09:17:28;;;;;;;9.07;5.03;;;;;;;;;;6205144;23;20005;-95
2023/05/04 09:20:10;;;;;;;;;;;;;;;;;;6205868;23;20020;-94
2023/05/04 09:25:33;;;;;;;9.88;4.78;;;;;;;;;;6218039;23;20009;-95
2023/05/04 09:31:06;;;;;;;10.57;4.63;;;;;;;;;;6079894;23;20106;-94
2023/05/04 09:33:35;;;;;;;16.58;4.55;;;;;;;;;;6199990;23;20016;-94
2023/05/04 09:36:44;;;;;;;10.52;4.57;;;;;;;;;;6205367;23;20027;-94
2023/05/04 09:39:19;;;;;;;17.25;4.68;;;;;;;;;;6215451;23;20062;-95
2023/05/04 09:42:08;;;;;;;12.63;5.93;;;;;;;;;;6189514;23;20017;-94
2023/05/04 09:44:55;;;;;;;9.73;4.45;;;;;;;;;;6189616;23;20025;-94
2023/05/04 09:47:22;;;;;;;14.27;4.75;;;;;;;;;;6209756;23;20019;-93
2023/05/04 09:52:39;;;;;;;13.02;5.25;;;;;;;;;;6066074;23;20015;-94
2023/05/04 09:55:08;;;;;;;12.07;5.18;;;;;;;;;;6192226;23;20060;-94
2023/05/04 09:57:54;;;;;;;10.95;4.95;;;;;;;;;;6209186;23;20008;-94
2023/05/04 10:00:23;;;;;;;10.13;4.13;;;;;;;;;;6209903;23;20031;-95
2023/05/04 10:02:50;;;;;;;12.82;5.38;;;;;;;;;;6180589;23;20104;-95
2023/05/04 10:05:30;;;;;;;12.85;5.25;;;;;;;;;;6181072;23;20028;-95
2023/05/04 10:08:00;;;;;;;7.55;4.10;;;;;;;;;;6206178;23;20064;-94
2023/05/04 10:13:31;;;;;;;10.20;4.55;;;;;;;;;;6182018;23;20024;-95
2023/05/04 10:16:20;;;;;;;10.57;4.55;;;;;;;;;;6198142;23;20043;-95
2023/05/04 10:18:57;;;;;;;13.20;4.30;;;;;;;;;;6196657;23;20032;-94
2023/05/04 10:21:43;;;;;;;11.80;4.22;;;;;;;;;;6193726;23;20487;-95
2023/05/04 10:24:31;;;;;;;11.10;4.45;;;;;;;;;;6197019;23;20059;-94
2023/05/04 10:27:16;;;;;;;10.30;4.47;;;;;;;;;;6198407;23;20064;-94
2023/05/04 10:32:38;;;;;;;7.25;4.05;;;;;;;;;;6195200;23;20019;-93
2023/05/04 10:40:47;;;;;;;18.35;4.30;;;;;;;;;;6145961;23;20008;-94
2023/05/04 10:43:36;;;;;;;5.65;3.83;;;;;;;;;;6163346;23;20041;-95
2023/05/04 10:46:12;;;;;;;;;;;;;;;;;;;;;
2023/05/04 10:48:58;;;;;;;8.52;4.00;;;;;;;;;;6198119;23;20005;-94
2023/05/04 10:51:39;;;;;;;7.90;4.57;;;;;;;;;;6196902;23;20015;-95
2023/05/04 10:57:09;;;;;;;8.45;4.05;;;;;;;;;;6177251;23;20016;-95
2023/05/04 10:59:46;;;;;;;9.07;4.50;;;;;;;;;;6197044;23;20005;-96
2023/05/04 11:02:21;;;;;;;8.63;3.88;;;;;;;;;;6171735;23;20009;-95
2023/05/04 11:05:07;;;;;;;12.50;4.95;;;;;;;;;;6195902;23;20001;-94
2023/05/04 11:07:40;;;;;;;10.15;4.10;;;;;;;;;;6192802;23;20005;-94
2023/05/04 11:10:21;;;;;;;8.77;4.28;;;;;;;;;;6197972;22;20009;-94
2023/05/04 11:12:47;;;;;;;7.28;4.35;;;;;;;;;;6195165;23;20009;-94
2023/05/04 11:15:14;;;;;;;14.18;4.85;;;;;;;;;;6171437;23;20013;-95
2023/05/04 11:17:54;;;;;;;7.15;4.03;;;;;;;;;;6196922;23;20013;-94
2023/05/04 11:20:29;;;;;;;8.18;4.32;;;;;;;;;;6197560;23;20013;-95
2023/05/04 11:22:56;;;;;;;6.63;4.57;;;;;;;;;;6195651;23;20005;-95
2023/05/04 11:25:29;;;;;;;13.10;4.35;;;;;;;;;;6170933;23;20063;-95
2023/05/04 11:27:55;;;;;;;9.98;4.50;;;;;;;;;;6194470;23;20005;-94
2023/05/04 11:30:30;;;;;;;11.18;4.50;;;;;;;;;;6195048;23;20005;-94
2023/05/04 11:33:02;;;;;;;8.63;4.28;;;;;;;;;;6196537;23;20060;-94
2023/05/04 11:35:31;;;;;;;7.75;4.30;;;;;;;;;;6194192;23;20044;-94
2023/05/04 11:38:08;;;;;;;15.38;5.40;;;;;;;;;;6171495;23;20009;-93
2023/05/04 11:40:36;;;;;;;10.60;4.57;;;;;;;;;;6169566;23;20013;-94
2023/05/04 11:43:03;;;;;;;10.30;4.65;;;;;;;;;;6193935;23;20086;-94
2023/05/04 11:45:33;;;;;;;10.50;4.65;;;;;;;;;;6194365;23;20016;-94
2023/05/04 11:51:05;;;;;;;9.32;4.55;;;;;;;;;;6164355;23;20005;-95
2023/05/04 11:54:06;;;;;;;8.75;4.10;;;;;;;;;;6145428;23;20703;-96
2023/05/04 11:56:41;;;;;;;16.77;4.97;;;;;;;;;;6023067;23;20510;-94
2023/05/04 11:59:16;;;;;;;9.77;4.18;;;;;;;;;;6048686;23;20030;-96
2023/05/04 12:01:43;;;;;;;;;;;;;;;;;;6146615;23;19997;-96
2023/05/04 12:04:15;;;;;;;10.23;4.38;;;;;;;;;;6173770;23;19958;-95
2023/05/04 12:06:57;;;;;;;9.95;4.10;;;;;;;;;;6197781;23;20036;-95
2023/05/04 12:09:27;;;;;;;7.60;4.20;;;;;;;;;;6178062;22;20039;-96
2023/05/04 12:12:21;;;;;;;11.68;4.85;;;;;;;;;;6228421;22;20046;-95
2023/05/04 12:14:48;;;;;;;5.80;4.20;;;;;;;;;;6207078;23;20016;-96
2023/05/04 12:17:14;;;;;;;8.05;4.30;;;;;;;;;;6202886;23;20486;-94
2023/05/04 12:19:52;;;;;;;10.15;4.55;;;;;;;;;;6180166;23;20013;-96
2023/05/04 12:22:29;;;;;;;9.80;4.53;;;;;;;;;;6203296;23;20008;-96
2023/05/04 12:25:00;;;;;;;10.73;4.88;;;;;;;;;;6202920;23;20008;-96
2023/05/04 12:27:27;;;;;;;15.02;4.70;;;;;;;;;;6203379;23;20080;-95
2023/05/04 12:30:22;;;;;;;9.13;4.40;;;;;;;;;;6179883;23;20043;-96
2023/05/04 12:32:51;;;;;;;8.23;4.80;;;;;;;;;;6204428;23;20015;-95
2023/05/04 12:35:20;;;;;;;7.72;5.03;;;;;;;;;;6177428;23;20043;-95
2023/05/04 12:37:54;;;;;;;7.07;4.45;;;;;;;;;;6228518;23;20013;-96
2023/05/04 12:40:20;;;;;;;8.80;3.88;;;;;;;;;;6204724;23;20009;-95
2023/05/04 12:42:52;;;;;;;5.50;4.03;;;;;;;;;;6206146;23;20001;-95
2023/05/04 12:45:22;;;;;;;13.23;4.70;;;;;;;;;;6202872;23;19984;-96
2023/05/04 12:47:57;;;;;;;6.82;4.13;;;;;;;;;;6176180;23;20029;-96
2023/05/04 12:50:23;;;;;;;;;;;;;;;;;;6202481;23;20001;-96
2023/05/04 12:55:35;;;;;;;8.00;4.40;;;;;;;;;;6205092;23;20063;-95
2023/05/04 12:58:20;;;;;;;16.77;4.95;;;;;;;;;;6175530;23;20008;-95
2023/05/04 13:00:50;;;;;;;6.50;4.50;;;;;;;;;;6202090;23;20005;-96
2023/05/04 13:03:20;;;;;;;13.35;4.68;;;;;;;;;;6194348;23;20016;-96
2023/05/04 13:06:13;;;;;;;11.80;4.05;;;;;;;;;;6197273;23;20007;-95
2023/05/04 13:09:00;;;;;;;11.25;4.35;;;;;;;;;;6188880;23;20028;-95
2023/05/04 13:11:27;;;;;;;8.85;4.03;;;;;;;;;;6175935;22;20101;-96
2023/05/04 13:13:57;;;;;;;13.48;4.63;;;;;;;;;;6166405;23;20198;-95
2023/05/04 13:16:26;;;;;;;8.18;4.50;;;;;;;;;;6165987;23;20013;-95
2023/05/04 13:19:02;;;;;;;9.05;4.65;;;;;;;;;;6188903;23;20311;-95
2023/05/04 13:21:29;;;;;;;9.73;4.07;;;;;;;;;;6191945;23;20079;-96
2023/05/04 13:24:22;;;;;;;16.05;4.70;;;;;;;;;;6169890;23;20043;-95
2023/05/04 13:26:48;;;;;;;10.40;3.90;;;;;;;;;;6167452;23;20009;-95
2023/05/04 13:29:15;;;;;;;9.25;4.35;;;;;;;;;;6194961;23;20048;-95
2023/05/04 13:31:43;;;;;;;10.27;3.90;;;;;;;;;;6171003;23;20013;-95
2023/05/04 13:34:09;;;;;;;12.45;4.30;;;;;;;;;;6198669;23;20009;-96
2023/05/04 13:36:42;;;;;;;6.45;3.97;;;;;;;;;;6172541;23;20020;-95
2023/05/04 13:39:12;;;;;;;9.15;4.85;;;;;;;;;;6175856;23;20005;-95
2023/05/04 13:41:41;;;;;;;9.38;3.92;;;;;;;;;;6198512;23;20000;-95
2023/05/04 13:44:07;;;;;;;8.32;4.40;;;;;;;;;;6173201;23;20095;-95
2023/05/04 13:46:36;;;;;;;8.13;4.50;;;;;;;;;;6198266;23;20028;-95
2023/05/04 13:49:20;;;;;;;16.38;4.90;;;;;;;;;;6197137;23;20071;-95
2023/05/04 13:51:49;;;;;;;11.73;4.30;;;;;;;;;;6170205;23;20013;-96
2023/05/04 13:54:15;;;;;;;9.60;3.85;;;;;;;;;;6190467;23;20087;-95
2023/05/04 13:56:44;;;;;;;8.43;4.70;;;;;;;;;;6197697;23;20016;-96
2023/05/04 13:59:11;;;;;;;12.50;4.88;;;;;;;;;;6181283;23;20234;-95
2023/05/04 14:01:44;;;;;;;8.02;4.25;;;;;;;;;;6184653;23;20005;-95
2023/05/04 14:04:11;;;;;;;10.18;4.15;;;;;;;;;;6184198;23;20283;-95
2023/05/04 14:06:41;;;;;;;10.07;4.65;;;;;;;;;;6208781;23;20024;-95
2023/05/04 14:09:17;;;;;;;8.07;3.75;;;;;;;;;;6207348;23;20052;-94
2023/05/04 14:11:50;;;;;;;5.65;4.28;;;;;;;;;;6237555;22;20031;-95
2023/05/04 14:14:23;;;;;;;7.93;4.35;;;;;;;;;;6211207;23;20019;-94
2023/05/04 14:16:55;;;;;;;6.55;3.80;;;;;;;;;;6186536;23;20008;-95
2023/05/04 14:19:21;;;;;;;9.95;4.20;;;;;;;;;;6181528;23;20000;-95
2023/05/04 14:21:48;;;;;;;9.07;4.20;;;;;;;;;;6204290;23;20005;-95
2023/05/04 14:24:14;;;;;;;7.75;3.90;;;;;;;;;;6202096;23;20004;-95
2023/05/04 14:26:40;;;;;;;9.60;3.80;;;;;;;;;;6174941;23;20027;-96
2023/05/04 14:29:36;;;;;;;5.85;3.92;;;;;;;;;;6201182;23;19997;-96
2023/05/04 14:31:54;;;;;;;9.45;5.13;;;;;;;;;;6199617;23;20032;-95
2023/05/04 14:34:35;;;;;;;6.90;4.00;;;;;;;;;;6194553;23;20008;-95
2023/05/04 14:37:04;;;;;;;5.95;4.00;;;;;;;;;;6149346;23;20016;-95
2023/05/04 14:39:35;;;;;;;11.85;4.95;;;;;;;;;;6172986;23;20017;-95
2023/05/04 14:42:18;;;;;;;8.38;4.05;;;;;;;;;;6196900;23;20052;-95
2023/05/04 14:44:45;;;;;;;9.98;3.72;;;;;;;;;;6174881;23;19989;-96
2023/05/04 14:47:24;;;;;;;8.57;4.43;;;;;;;;;;6174099;23;20459;-95
2023/05/04 14:49:50;;;;;;;13.10;4.50;;;;;;;;;;6147366;23;20025;-96
2023/05/04 14:52:27;;;;;;;9.45;4.60;;;;;;;;;;6169157;23;20032;-95
2023/05/04 14:54:55;;;;;;;7.00;3.42;;;;;;;;;;6173514;23;20085;-95
2023/05/04 14:57:21;;;;;;;5.60;3.85;;;;;;;;;;6144954;23;20017;-95
2023/05/04 14:59:48;;;;;;;15.55;4.47;;;;;;;;;;6143011;23;20039;-95
2023/05/04 15:05:05;;;;;;;11.77;4.35;;;;;;;;;;6196154;23;20366;-95
2023/05/04 15:07:31;;;;;;;8.45;3.25;;;;;;;;;;6148208;23;20068;-94
2023/05/04 15:09:57;;;;;;;7.32;3.40;;;;;;;;;;6170078;23;20055;-96
2023/05/04 15:12:26;;;;;;;7.50;3.28;;;;;;;;;;6188485;22;20500;-95
2023/05/04 15:14:56;;;;;;;9.55;3.85;;;;;;;;;;6172200;23;20016;-96
2023/05/04 15:17:22;;;;;;;11.95;4.20;;;;;;;;;;6195761;23;20040;-95
2023/05/04 15:19:48;;;;;;;7.25;3.50;;;;;;;;;;6174801;23;20040;-95
2023/05/04 15:22:16;;;;;;;12.73;3.88;;;;;;;;;;6197615;23;20024;-95
2023/05/04 15:24:42;;;;;;;12.77;3.70;;;;;;;;;;6194722;23;20013;-95
2023/05/04 15:27:13;;;;;;;8.05;3.60;;;;;;;;;;6172031;23;20012;-96
2023/05/04 15:32:32;;;;;;;7.55;3.70;;;;;;;;;;6198988;23;20009;-95
2023/05/04 15:34:58;;;;;;;5.47;2.85;;;;;;;;;;6197685;23;20009;-96
2023/05/04 15:37:28;;;;;;;10.45;3.08;;;;;;;;;;6172685;23;20040;-95
2023/05/04 15:39:55;;;;;;;9.38;3.22;;;;;;;;;;6197119;23;20092;-95
2023/05/04 15:42:24;;;;;;;5.65;3.08;;;;;;;;;;6197411;23;20012;-95
2023/05/04 15:44:54;;;;;;;12.82;3.40;;;;;;;;;;6199038;23;20001;-95
2023/05/04 15:47:20;;;;;;;8.85;3.10;;;;;;;;;;6195554;23;20064;-95
2023/05/04 15:50:02;;;;;;;9.68;3.17;;;;;;;;;;6194528;23;20017;-96
2023/05/04 15:52:29;;;;;;;7.30;3.20;;;;;;;;;;6197232;23;20005;-96
2023/05/04 15:54:55;;;;;;;13.45;4.20;;;;;;;;;;6175156;23;20068;-96
2023/05/04 15:57:22;;;;;;;7.53;3.30;;;;;;;;;;6197952;23;20013;-96
2023/05/04 16:00:02;;;;;;;;;;;;;;;;;;;;;